»·PEaware :: N413C KOXR-KSBA

N413C :: KOXR-KSBA

FLIGHT INFORMATION

Flight Status: Arrived
Operator: Privately registered:
United States
More flights under this callsign
Pilot: Alec D. (17934)
Aircraft: PIPER PA-28R-201 ARROW
(P28R)
More flights by this aircraft type
Origin: KOXR Oxnard
United States
Destination: KSBA Santa Barbara Mun
United States
More flights between these airports :: More routes between these airports
Route: KWANG
File this flight plan on PilotEdge
Remarks:
Altitude:
(Current/Filed)
4,000ft
Speed:
(Current/Filed)
130kts
Departed: 27-Aug-18 10:07 AM
Arrived: 27-Aug-18 10:43 AM
Distance/Time
Traveled:
34nm/0:36
Distance/Time
To Go:
Arrived

Flight Plot

Page will automatically refresh every two minutes.


Map Options




Map Legend


Flown Route
Filed Route
Departure Airport
Arrival Airport
Navaid (VOR, NDB)
Fix

Horizontal Profiles

Position Reports

Time Latitude Longitude Heading Altitude Ground
Speed
27-Aug-18 09:52 34.198897 -119.215839 181 45ft 0kts
27-Aug-18 09:53 34.198897 -119.215839 181 45ft 0kts
27-Aug-18 09:54 34.198895 -119.215839 181 45ft 0kts
27-Aug-18 09:55 34.198892 -119.215839 181 45ft 0kts
27-Aug-18 09:56 34.198890 -119.215839 181 45ft 0kts
27-Aug-18 09:57 34.198887 -119.215839 181 45ft 0kts
27-Aug-18 09:58 34.198884 -119.215839 180 45ft 0kts
27-Aug-18 09:59 34.198881 -119.215839 180 45ft 0kts
27-Aug-18 10:00 34.198877 -119.215839 180 45ft 0kts
27-Aug-18 10:01 34.199778 -119.213628 91 45ft 15kts
27-Aug-18 10:02 34.199713 -119.207904 91 45ft 18kts
27-Aug-18 10:03 34.199631 -119.201233 89 45ft 16kts
27-Aug-18 10:04 34.200075 -119.198152 27 45ft 0kts
27-Aug-18 10:05 34.200085 -119.198146 28 45ft 0kts
27-Aug-18 10:06 34.200087 -119.198144 28 45ft 0kts
27-Aug-18 10:07 34.200089 -119.198143 27 45ft 0kts
27-Aug-18 10:08 34.200757 -119.201639 269 45ft 71kts
27-Aug-18 10:09 34.200663 -119.235475 269 741ft 106kts
27-Aug-18 10:10 34.200067 -119.270777 267 1576ft 104kts
27-Aug-18 10:11 34.196459 -119.305504 261 2374ft 102kts
27-Aug-18 10:12 34.190562 -119.339865 258 3060ft 104kts
27-Aug-18 10:13 34.187292 -119.374255 286 3665ft 102kts
27-Aug-18 10:14 34.207057 -119.398991 321 4081ft 107kts
27-Aug-18 10:15 34.231265 -119.423357 318 4092ft 117kts
27-Aug-18 10:16 34.255186 -119.449986 315 4062ft 118kts
27-Aug-18 10:17 34.279348 -119.478387 317 3954ft 119kts
27-Aug-18 10:18 34.305244 -119.503388 320 3937ft 119kts
27-Aug-18 10:19 34.318114 -119.537668 279 4032ft 117kts
27-Aug-18 10:20 34.321433 -119.577439 283 4054ft 119kts
27-Aug-18 10:21 34.324045 -119.617434 277 4059ft 120kts
27-Aug-18 10:22 34.327654 -119.657420 280 4073ft 119kts
27-Aug-18 10:23 34.330132 -119.697718 277 4058ft 120kts
27-Aug-18 10:24 34.331670 -119.738113 275 4038ft 121kts
27-Aug-18 10:25 34.332567 -119.779203 274 3988ft 122kts
27-Aug-18 10:26 34.333628 -119.819903 276 3981ft 121kts
27-Aug-18 10:27 34.336521 -119.860185 279 3985ft 120kts
27-Aug-18 10:28 34.340600 -119.900212 279 4000ft 119kts
27-Aug-18 10:29 34.342051 -119.940633 276 3983ft 121kts
27-Aug-18 10:30 34.344350 -119.980853 280 4023ft 118kts
27-Aug-18 10:31 34.347105 -120.021134 278 3993ft 121kts
27-Aug-18 10:32 34.351733 -120.060877 279 3994ft 119kts
27-Aug-18 10:33 34.353717 -120.100997 274 4009ft 120kts
27-Aug-18 10:34 34.366252 -120.132344 355 4020ft 118kts
27-Aug-18 10:35 34.398946 -120.129567 11 4035ft 119kts
27-Aug-18 10:36 34.417604 -120.095882 71 3747ft 131kts
27-Aug-18 10:37 34.420506 -120.053108 86 3052ft 127kts
27-Aug-18 10:38 34.423309 -120.013686 84 2267ft 110kts
27-Aug-18 10:39 34.424244 -119.978993 85 1972ft 97kts
27-Aug-18 10:40 34.426635 -119.945909 93 1486ft 97kts
27-Aug-18 10:41 34.425902 -119.919138 94 1040ft 94kts
27-Aug-18 10:42 34.426923 -119.882504 87 592ft 93kts
27-Aug-18 10:43 34.427524 -119.853536 91 67ft 69kts
27-Aug-18 10:44 34.427656 -119.841813 116 12ft 10kts
27-Aug-18 10:45 34.427221 -119.841515 162 12ft 0kts
27-Aug-18 10:46 34.423536 -119.840002 115 12ft 14kts
27-Aug-18 10:47 34.423637 -119.836458 141 12ft 11kts
27-Aug-18 10:48 34.423669 -119.835821 73 12ft 0kts
27-Aug-18 10:49 34.423669 -119.835821 72 12ft 0kts
27-Aug-18 10:50 34.423669 -119.835821 71 12ft 0kts

Navigation Log

Ident Type
1. KOXR Airport
2. KWANG Fix
3. KSBA Airport